Details From CYFB - Iqaluit
To CYVP - KUUJJUAQ
Flight Number -
Tags decoded
Created
Modified
Stats Distance 340 nm / 630 km
Max Altitude 0 ft / 0 m
Waypoints 2
Social Downloads 1
Likes 0
Share VATSIM

Download

Looking for another format? Having issues loading an existing format? Contact us
Advertisement - Login to hide

Notes

Requested: CYFB CYVP

Route

CYFB CYVP

ID Type Via Altitude Latitude Longitude Leg Dist Tot Dist Heading (true) Name
O CYFB APT - 0 ft / 0 m 63.75657˚ -68.55606˚ - 0 nm - Iqaluit
O CYVP APT - 0 ft / 0 m 58.09695˚ -68.42333˚ 339 nm 339 nm 179° / 179° KUUJJUAQ

Altitude Profile

Advertisement - Login to hide

Weather


0- 5 10 15 20 25 30 35+ Temperature / ° C

Clouds and Precipitation
Forecast for 2018-05-20 12:00 UTC. Updated an hour ago

Ground ~20,000 ft ~40,000 ft Winds

CYFB

Details ICAO CYFB (YFB)
Name Iqaluit
Region Canada
Timezone America/Iqaluit (UTC-4.0)
Stats Elevation 110 ft / 34 m (AMSL)
Location 63.756565° -68.556058°
Runways 1
Magnetic Variation 27.376° W

METAR

CYFB 201200Z 33007KT 12SM -SN OVC018 M06/M10 A2972 RMK SC8 SLP070

Decode

TAF

TAF TAF CYFB 201139Z 2012/2112 34005KT P6SM OVC025 TEMPO 2012/2112 P6SM -SN OVC020 RMK NXT FCST BY 201800Z

Decode

Departure Runways

ID Width Length Bearing (true) Bearing (mag) Surface Threshold Offset Overrun Length
17 200 ft / 61 m 8,605 ft / 2,623 m 135.58° 162.96° Asphalt 0 ft / 0 m 210 ft / 64 m
35 200 ft / 61 m 8,605 ft / 2,623 m 315.62° 343.00° Asphalt 0 ft / 0 m 243 ft / 74 m

CYVP

Details ICAO CYVP (YVP)
Name KUUJJUAQ
Region Canada
Timezone America/Montreal (UTC-4.0)
Stats Elevation 129 ft / 39 m (AMSL)
Location 58.096945° -68.423333°
Runways 2
Magnetic Variation 22.561° W

METAR

CYVP 201200Z 35005KT 15SM OVC015 M07/M10 A2976 RMK SC8 SLP084

Decode

TAF

TAF CYVP 201139Z 2012/2024 VRB03KT P6SM BKN020 TEMPO 2012/2021 BKN030 BECMG 2012/2014 36005KT FM202100 VRB03KT P6SM BKN025 TEMPO 2021/2024 BKN020 RMK NXT FCST BY 201800Z

Decode

Destination Runways

ID Width Length Bearing (true) Bearing (mag) Surface Threshold Offset Overrun Length
07 150 ft / 46 m 6,002 ft / 1,829 m 43.43° 65.99° Asphalt 0 ft / 0 m 0 ft / 0 m
13 150 ft / 46 m 5,000 ft / 1,524 m 102.88° 125.44° Gravel 0 ft / 0 m 0 ft / 0 m
25 150 ft / 46 m 6,002 ft / 1,829 m 223.45° 246.01° Asphalt 0 ft / 0 m 0 ft / 0 m
31 150 ft / 46 m 5,000 ft / 1,524 m 282.90° 305.46° Gravel 0 ft / 0 m 0 ft / 0 m

Popular Alternatives